首页
METAR-TAF:

METAR-TAF

机场 :

尼亞加拉瀑布城, 紐約州, 美国

纬度: 43-06-26N, 经度: 078-56-43W, 海拔: 180米

当前天气观测

该预报发布于24分钟前的04:53 UTC
风速7节,风向西
温度 -2°C
湿度 93%
气压 1013 hPa
能見度: 3.2公里
多云层高于2300英尺
阴天层高于4100英尺
小雪, 轻雾

METAR: KIAG 190453Z AUTO 26007KT 2SM -SN BR BKN023 OVC041 M02/M03 A2992 RMK AO2 SNB22 SLP147 P0000 T10171033 400061017 $

时间: 00:17 (05:17 UTC)

预报

该预报发布于3小时和15分钟前的02:02 UTC
预报有效从19日的 02点(UTC)到 19日的 24点(UTC)
风速8节,风向西
能見度: 10公里
阴天层高于4000英尺
附近有阵雨
从 19日的 1000点(UTC)
风速12节,风向西
能見度: 10公里
多云层高于2500英尺
附近有阵雨
从 19日的 1600点(UTC)
风速18节,风向西转西南,有时为26节阵风
能見度: 10公里
多云层高于2500英尺

TAF: KIAG 190202Z 1902/1924 26008KT P6SM VCSH OVC040 FM191000 26012KT P6SM VCSH BKN025 FM191600 25018G26KT P6SM BKN025

超过4000个机场的气象观测和天气预报(METAR&TAF报告)。

可查询的气象台以黄色和红色小点在地图上表示。

将鼠标移到小点上方,可查看气象台名称。

然后点击查看天气观测和预报。

如需切换地图:点击带黑十字的绿色按钮放大地图;点击带横线的绿色按钮缩小地图;或者点击绿色箭头查看邻近地区的地图。


METAR-TAF: